McGrath, Alaska
Current Conditions -  °F | °C
As of 9:04 AM on Monday 22 Dec 2014 (Local Time) from PAMC Reporting Station
Light Snow Light Snow  
Wind Chill: -18°   Ceiling: 1000
Heat Index: -18°   Visibility: 9mi
Dew Point: -21°   Wind: 0mph
Humidity: 83%   Direction: NA
Pressure: 29.85"   Gusts: NA
Location:  62.96°N, 155.6°W
Report Text: PAMC 221804Z 00000KT 9SM -SN BKN010 OVC019 M18/M21 A2985 RMK AO2 P0000 T11831206
Loading
Personal Weather Stations






























Interactive Weather Map New forecast layout! Learn more

10-Day Weather Forecast

Advertisements
Track Severe Weather on mobile